Time;durP1;ratioP1;P1;durP2;ratioP2;P2;SDS_P1;SDS_P2;PMS_P1;PMS_P2;Temp;Humidity;BMP_temperature;BMP_pressure;BME280_temperature;BME280_humidity;BME280_pressure;Samples;Min_cycle;Max_cycle;Signal;HPM_P1;HPM_P2
2023/02/21 02:13:57;;;;;;;3.47;2.35;;;;;;;;;;2094065;28;20025;-68
2023/02/21 02:15:23;;;;;;;3.22;2.30;;;;;;;;;;2093287;28;20020;-69
2023/02/21 02:16:47;;;;;;;3.63;2.72;;;;;;;;;;2093262;28;20037;-68
2023/02/21 02:18:17;;;;;;;2.83;2.33;;;;;;;;;;2091901;28;20025;-68
2023/02/21 02:19:55;;;;;;;3.13;2.55;;;;;;;;;;2091499;28;20111;-68
2023/02/21 02:21:26;;;;;;;2.45;2.25;;;;;;;;;;2095361;28;20029;-68
2023/02/21 02:23:04;;;;;;;3.17;2.60;;;;;;;;;;2092921;28;20025;-68
2023/02/21 02:24:42;;;;;;;3.75;2.50;;;;;;;;;;2093280;28;20108;-68
2023/02/21 02:26:23;;;;;;;3.13;2.83;;;;;;;;;;2093013;28;20040;-68
2023/02/21 02:27:53;;;;;;;3.88;2.95;;;;;;;;;;2093075;28;20028;-69
2023/02/21 02:29:37;;;;;;;5.80;2.80;;;;;;;;;;2092457;28;20036;-69
2023/02/21 02:31:16;;;;;;;4.03;3.53;;;;;;;;;;2092621;28;20041;-68
2023/02/21 02:32:36;;;;;;;3.03;2.70;;;;;;;;;;2093415;28;20029;-69
2023/02/21 02:34:13;;;;;;;3.00;2.65;;;;;;;;;;2083629;28;20033;-68
2023/02/21 02:35:44;;;;;;;4.47;3.05;;;;;;;;;;2093444;28;20036;-68
2023/02/21 02:37:22;;;;;;;3.63;3.03;;;;;;;;;;2094917;28;20028;-68
2023/02/21 02:39:00;;;;;;;3.03;2.72;;;;;;;;;;2092276;28;20041;-68
2023/02/21 02:40:28;;;;;;;3.25;2.95;;;;;;;;;;2092297;28;20777;-68
2023/02/21 02:42:00;;;;;;;3.25;2.95;;;;;;;;;;2094196;28;20036;-68
2023/02/21 02:43:28;;;;;;;4.22;3.60;;;;;;;;;;2095457;28;20025;-68
2023/02/21 02:44:57;;;;;;;4.93;3.28;;;;;;;;;;2091558;28;20036;-68
2023/02/21 02:46:22;;;;;;;4.03;3.63;;;;;;;;;;2092180;28;20036;-68
2023/02/21 02:47:42;;;;;;;3.35;3.05;;;;;;;;;;2094861;28;20028;-69
2023/02/21 02:49:03;;;;;;;4.07;3.67;;;;;;;;;;2092253;28;20029;-68
2023/02/21 02:50:23;;;;;;;3.72;3.03;;;;;;;;;;2088868;28;20485;-69
2023/02/21 02:51:42;;;;;;;3.47;3.08;;;;;;;;;;2094932;28;20168;-69
2023/02/21 02:53:02;;;;;;;4.13;3.38;;;;;;;;;;2091796;28;20033;-69
2023/02/21 02:54:21;;;;;;;3.40;3.10;;;;;;;;;;2092930;28;20024;-68
2023/02/21 02:55:46;;;;;;;3.65;3.10;;;;;;;;;;2093525;28;20024;-69
2023/02/21 02:57:09;;;;;;;3.95;3.65;;;;;;;;;;2093974;28;20029;-68
2023/02/21 02:58:30;;;;;;;5.07;3.47;;;;;;;;;;2090666;28;20021;-69
2023/02/21 02:59:49;;;;;;;5.63;3.40;;;;;;;;;;2091634;28;20558;-69
2023/02/21 03:01:35;;;;;;;6.38;3.85;;;;;;;;;;2092494;28;20056;-68
2023/02/21 03:02:54;;;;;;;3.50;3.20;;;;;;;;;;2092333;28;20746;-69
2023/02/21 03:04:20;;;;;;;3.72;2.88;;;;;;;;;;2093361;28;20033;-69
2023/02/21 03:05:40;;;;;;;3.85;3.40;;;;;;;;;;2092197;28;20037;-68
2023/02/21 03:07:16;;;;;;;3.58;3.22;;;;;;;;;;2083458;28;20037;-68
2023/02/21 03:08:56;;;;;;;3.20;2.90;;;;;;;;;;2089973;28;20376;-69
2023/02/21 03:10:27;;;;;;;3.65;3.35;;;;;;;;;;2092237;28;20444;-69
2023/02/21 03:12:00;;;;;;;4.85;3.28;;;;;;;;;;2094089;28;20065;-68
2023/02/21 03:13:39;;;;;;;4.65;3.22;;;;;;;;;;2095403;28;20119;-68
2023/02/21 03:14:58;;;;;;;9.25;4.05;;;;;;;;;;2093847;28;20037;-68
2023/02/21 03:16:26;;;;;;;4.85;3.60;;;;;;;;;;2093298;28;20063;-68
2023/02/21 03:17:52;;;;;;;6.40;3.85;;;;;;;;;;2095477;28;20096;-68
2023/02/21 03:19:16;;;;;;;5.97;4.03;;;;;;;;;;2094270;28;20037;-68
2023/02/21 03:20:37;;;;;;;4.57;4.18;;;;;;;;;;2093225;28;20036;-68
2023/02/21 03:22:07;;;;;;;6.53;3.95;;;;;;;;;;2093294;28;20078;-68
2023/02/21 03:23:28;;;;;;;7.13;4.35;;;;;;;;;;2093755;28;20028;-68
2023/02/21 03:24:48;;;;;;;4.57;4.05;;;;;;;;;;2091978;28;20032;-68
2023/02/21 03:26:09;;;;;;;6.45;3.85;;;;;;;;;;2088881;28;20036;-69
2023/02/21 03:27:28;;;;;;;9.65;4.00;;;;;;;;;;2090545;28;20036;-69
2023/02/21 03:28:48;;;;;;;24.92;4.72;;;;;;;;;;2089508;28;20032;-68
2023/02/21 03:30:08;;;;;;;4.10;3.58;;;;;;;;;;2087874;28;20119;-68
2023/02/21 03:31:31;;;;;;;5.20;4.40;;;;;;;;;;2089504;28;20481;-68
2023/02/21 03:32:51;;;;;;;5.25;4.10;;;;;;;;;;2088023;28;20032;-69
2023/02/21 03:34:11;;;;;;;5.25;4.10;;;;;;;;;;2087485;28;20223;-68
2023/02/21 03:35:30;;;;;;;6.85;4.00;;;;;;;;;;2090767;28;20021;-68
2023/02/21 03:36:49;;;;;;;6.88;4.40;;;;;;;;;;2092562;28;20810;-68
2023/02/21 03:38:08;;;;;;;6.20;4.15;;;;;;;;;;2079276;28;20104;-69
2023/02/21 03:39:28;;;;;;;5.18;4.15;;;;;;;;;;2086084;28;20028;-69
2023/02/21 03:40:47;;;;;;;4.47;4.05;;;;;;;;;;2090295;28;20021;-69
2023/02/21 03:42:06;;;;;;;5.80;4.53;;;;;;;;;;2087866;28;20111;-69
2023/02/21 03:43:25;;;;;;;4.60;4.18;;;;;;;;;;2088575;28;20029;-69
2023/02/21 03:44:44;;;;;;;4.70;4.18;;;;;;;;;;2092024;28;20504;-69
2023/02/21 03:46:03;;;;;;;4.55;3.70;;;;;;;;;;2093181;28;20033;-69
2023/02/21 03:47:22;;;;;;;7.85;4.68;;;;;;;;;;2094426;28;20346;-69
2023/02/21 03:48:41;;;;;;;4.18;3.78;;;;;;;;;;2092900;28;20104;-69
2023/02/21 03:50:00;;;;;;;8.40;4.75;;;;;;;;;;2094338;28;20493;-70
2023/02/21 03:51:20;;;;;;;4.95;4.45;;;;;;;;;;2091807;28;20056;-69
2023/02/21 03:52:39;;;;;;;6.30;4.68;;;;;;;;;;2091523;28;20115;-69
2023/02/21 03:53:58;;;;;;;4.93;4.43;;;;;;;;;;2089563;28;20389;-69
2023/02/21 03:55:17;;;;;;;4.55;4.15;;;;;;;;;;2092567;28;20465;-69
2023/02/21 03:56:36;;;;;;;7.65;4.90;;;;;;;;;;2091150;28;20040;-69
2023/02/21 03:57:55;;;;;;;6.85;4.90;;;;;;;;;;2093468;28;20017;-69
2023/02/21 03:59:14;;;;;;;5.60;4.50;;;;;;;;;;2094348;28;20135;-69
2023/02/21 04:00:33;;;;;;;5.78;4.90;;;;;;;;;;2092387;28;20481;-69
2023/02/21 04:01:54;;;;;;;5.03;4.47;;;;;;;;;;2094494;28;20028;-69
2023/02/21 04:03:14;;;;;;;5.38;4.47;;;;;;;;;;2091552;28;20032;-70
2023/02/21 04:04:33;;;;;;;4.35;3.83;;;;;;;;;;2091333;28;20107;-69
2023/02/21 04:05:52;;;;;;;6.55;3.80;;;;;;;;;;2095170;28;20028;-69
2023/02/21 04:07:11;;;;;;;4.22;3.88;;;;;;;;;;2087855;28;20421;-69
2023/02/21 04:08:29;;;;;;;6.10;4.45;;;;;;;;;;2090368;28;20112;-69
2023/02/21 04:09:48;;;;;;;5.18;4.05;;;;;;;;;;2093951;28;20033;-69
2023/02/21 04:11:08;;;;;;;4.38;3.95;;;;;;;;;;2092329;28;20477;-69
2023/02/21 04:12:26;;;;;;;4.55;4.15;;;;;;;;;;2093255;28;20032;-69
2023/02/21 04:13:45;;;;;;;6.03;4.65;;;;;;;;;;2096265;28;20045;-70
2023/02/21 04:15:04;;;;;;;6.22;4.40;;;;;;;;;;2094780;28;20177;-69
2023/02/21 04:16:23;;;;;;;4.50;4.10;;;;;;;;;;2086557;28;20096;-69
2023/02/21 04:17:42;;;;;;;5.15;4.18;;;;;;;;;;2090819;28;20558;-69
2023/02/21 04:19:01;;;;;;;7.13;4.80;;;;;;;;;;2094566;28;20466;-69
2023/02/21 04:20:20;;;;;;;4.63;3.85;;;;;;;;;;2095745;28;20037;-70
2023/02/21 04:21:39;;;;;;;4.72;4.20;;;;;;;;;;2094155;28;20020;-69
2023/02/21 04:22:58;;;;;;;5.20;4.30;;;;;;;;;;2094997;28;20024;-69
2023/02/21 04:24:17;;;;;;;4.10;3.75;;;;;;;;;;2094876;28;20404;-69
2023/02/21 04:25:36;;;;;;;4.13;3.72;;;;;;;;;;2095312;28;20123;-69
2023/02/21 04:26:55;;;;;;;4.50;4.05;;;;;;;;;;2086866;28;20497;-69
2023/02/21 04:28:14;;;;;;;4.75;4.13;;;;;;;;;;2091844;28;20032;-69
2023/02/21 04:29:33;;;;;;;4.13;3.72;;;;;;;;;;2094321;28;20885;-69
2023/02/21 04:30:51;;;;;;;4.50;3.55;;;;;;;;;;2093334;28;20397;-69
2023/02/21 04:32:10;;;;;;;4.50;3.88;;;;;;;;;;2095264;28;20477;-69
2023/02/21 04:33:30;;;;;;;4.35;3.38;;;;;;;;;;2094960;28;20040;-69
2023/02/21 04:34:49;;;;;;;3.92;3.60;;;;;;;;;;2094110;28;20401;-69
2023/02/21 04:36:08;;;;;;;4.18;3.78;;;;;;;;;;2095042;28;20036;-69
2023/02/21 04:37:27;;;;;;;3.78;3.47;;;;;;;;;;2095938;28;20020;-69
2023/02/21 04:38:46;;;;;;;4.03;3.67;;;;;;;;;;2095332;28;20033;-69
2023/02/21 04:40:05;;;;;;;4.10;3.80;;;;;;;;;;2095185;28;20032;-69
2023/02/21 04:41:24;;;;;;;6.03;4.47;;;;;;;;;;2094700;28;20060;-69
2023/02/21 04:42:43;;;;;;;5.28;3.67;;;;;;;;;;2095393;28;20029;-70
2023/02/21 04:44:02;;;;;;;4.13;3.50;;;;;;;;;;2095385;28;20029;-69
2023/02/21 04:45:21;;;;;;;3.83;3.38;;;;;;;;;;2094516;28;20020;-69
2023/02/21 04:46:40;;;;;;;4.43;3.47;;;;;;;;;;2091134;28;20044;-69
2023/02/21 04:47:59;;;;;;;4.70;3.78;;;;;;;;;;2089473;28;20029;-69
2023/02/21 04:49:18;;;;;;;4.20;3.40;;;;;;;;;;2090532;28;20096;-69
2023/02/21 04:50:40;;;;;;;4.53;3.50;;;;;;;;;;2092825;28;20029;-69
2023/02/21 04:51:59;;;;;;;5.63;3.75;;;;;;;;;;2094237;28;20032;-68
2023/02/21 04:53:18;;;;;;;3.88;3.50;;;;;;;;;;2089706;28;20025;-69
2023/02/21 04:54:36;;;;;;;3.92;3.20;;;;;;;;;;2092444;28;20056;-69
2023/02/21 04:55:55;;;;;;;3.47;3.17;;;;;;;;;;2093992;28;20024;-69
2023/02/21 04:57:16;;;;;;;4.32;2.78;;;;;;;;;;2090042;28;20028;-69
2023/02/21 04:58:34;;;;;;;3.05;2.85;;;;;;;;;;2094368;28;20116;-69
2023/02/21 04:59:57;;;;;;;3.22;3.03;;;;;;;;;;2093863;28;20025;-69
2023/02/21 05:01:16;;;;;;;;;;;;;;;;;;2094665;28;20103;-68
2023/02/21 05:02:35;;;;;;;3.35;3.10;;;;;;;;;;2092504;28;19998;-69
2023/02/21 05:03:54;;;;;;;8.88;5.65;;;;;;;;;;2087121;28;20029;-69
2023/02/21 05:05:13;;;;;;;3.70;3.03;;;;;;;;;;2090215;28;20413;-69
2023/02/21 05:06:32;;;;;;;3.28;2.97;;;;;;;;;;2093985;28;20468;-69
2023/02/21 05:07:51;;;;;;;2.80;2.60;;;;;;;;;;2095720;28;20694;-68
2023/02/21 05:09:10;;;;;;;2.90;2.70;;;;;;;;;;2093580;28;20036;-69
2023/02/21 05:10:29;;;;;;;3.17;2.65;;;;;;;;;;2093346;28;20425;-68
2023/02/21 05:11:48;;;;;;;3.45;2.58;;;;;;;;;;2095399;28;20036;-68
2023/02/21 05:13:07;;;;;;;4.00;2.92;;;;;;;;;;2093951;28;20497;-68
2023/02/21 05:14:26;;;;;;;4.25;2.95;;;;;;;;;;2093902;28;20044;-68
2023/02/21 05:15:45;;;;;;;2.65;2.45;;;;;;;;;;2093502;28;20051;-68
2023/02/21 05:17:04;;;;;;;5.88;3.00;;;;;;;;;;2091822;28;20339;-69
2023/02/21 05:18:27;;;;;;;3.97;2.78;;;;;;;;;;2093053;28;20036;-69
2023/02/21 05:19:46;;;;;;;3.15;2.50;;;;;;;;;;2093841;28;20498;-69
2023/02/21 05:21:06;;;;;;;3.08;2.55;;;;;;;;;;2093060;28;20024;-69
2023/02/21 05:22:25;;;;;;;3.08;2.78;;;;;;;;;;2093565;28;20029;-70
2023/02/21 05:23:54;;;;;;;3.22;2.45;;;;;;;;;;2090488;28;20024;-70
2023/02/21 05:25:17;;;;;;;4.28;2.88;;;;;;;;;;2094294;28;20021;-69
2023/02/21 05:26:37;;;;;;;3.55;2.95;;;;;;;;;;2094034;28;20021;-69
2023/02/21 05:27:56;;;;;;;2.60;2.40;;;;;;;;;;2095451;28;20024;-69
2023/02/21 05:29:15;;;;;;;4.60;2.55;;;;;;;;;;2096282;28;20408;-69
2023/02/21 05:30:34;;;;;;;3.60;2.83;;;;;;;;;;2093297;28;20032;-69
2023/02/21 05:31:53;;;;;;;3.22;2.25;;;;;;;;;;2096274;28;20028;-69
2023/02/21 05:33:12;;;;;;;2.90;2.70;;;;;;;;;;2093627;28;20032;-69
2023/02/21 05:34:31;;;;;;;2.95;2.72;;;;;;;;;;2094050;28;20037;-69
2023/02/21 05:35:50;;;;;;;2.70;2.50;;;;;;;;;;2089767;28;20025;-69
2023/02/21 05:37:12;;;;;;;2.58;2.38;;;;;;;;;;2085028;28;20111;-69
2023/02/21 05:38:31;;;;;;;2.72;2.38;;;;;;;;;;2090917;28;20036;-69
2023/02/21 05:39:50;;;;;;;3.13;2.50;;;;;;;;;;2094915;28;20016;-69
2023/02/21 05:41:09;;;;;;;3.55;2.90;;;;;;;;;;2095085;28;20405;-69
2023/02/21 05:42:28;;;;;;;3.35;2.78;;;;;;;;;;2095419;28;21164;-69
2023/02/21 05:43:48;;;;;;;2.92;2.72;;;;;;;;;;2093729;28;20032;-69
2023/02/21 05:45:07;;;;;;;3.35;2.70;;;;;;;;;;2094045;28;20036;-68
2023/02/21 05:46:33;;;;;;;3.13;2.83;;;;;;;;;;2096341;28;20036;-71
2023/02/21 05:47:55;;;;;;;2.80;2.60;;;;;;;;;;2094431;28;20024;-70
2023/02/21 05:49:14;;;;;;;2.92;2.65;;;;;;;;;;2083087;28;20512;-69
2023/02/21 05:50:33;;;;;;;3.63;2.80;;;;;;;;;;2090771;28;20032;-69
2023/02/21 05:51:52;;;;;;;4.28;2.90;;;;;;;;;;2095342;28;20111;-68
2023/02/21 05:53:11;;;;;;;4.55;2.97;;;;;;;;;;2093919;28;20028;-69
2023/02/21 05:54:30;;;;;;;3.08;2.75;;;;;;;;;;2095084;28;20028;-68
2023/02/21 05:55:49;;;;;;;4.00;2.80;;;;;;;;;;2093099;28;20025;-68
2023/02/21 05:57:08;;;;;;;5.65;2.70;;;;;;;;;;2095962;28;20033;-69
2023/02/21 05:58:27;;;;;;;2.55;2.35;;;;;;;;;;2086325;28;20021;-68
2023/02/21 05:59:49;;;;;;;2.50;2.30;;;;;;;;;;2090753;28;20024;-69
2023/02/21 06:01:08;;;;;;;3.55;2.50;;;;;;;;;;2094145;28;20032;-69
2023/02/21 06:02:27;;;;;;;4.75;2.60;;;;;;;;;;2095668;28;20068;-69
2023/02/21 06:03:46;;;;;;;3.83;2.63;;;;;;;;;;2095434;28;20473;-68
2023/02/21 06:05:05;;;;;;;2.95;2.75;;;;;;;;;;2094237;28;20028;-68
2023/02/21 06:06:24;;;;;;;4.25;2.92;;;;;;;;;;2093872;28;20495;-68
2023/02/21 06:07:43;;;;;;;2.55;2.20;;;;;;;;;;2093402;28;20037;-69
2023/02/21 06:09:03;;;;;;;2.90;2.70;;;;;;;;;;2084555;28;20032;-69
2023/02/21 06:10:22;;;;;;;3.25;2.45;;;;;;;;;;2090098;28;20029;-68
2023/02/21 06:11:41;;;;;;;2.72;2.53;;;;;;;;;;2094426;28;20618;-69
2023/02/21 06:13:00;;;;;;;3.35;3.05;;;;;;;;;;2093643;28;20028;-68
2023/02/21 06:14:19;;;;;;;4.22;2.40;;;;;;;;;;2093854;28;20029;-68
2023/02/21 06:15:38;;;;;;;4.30;2.55;;;;;;;;;;2095927;28;20024;-68
2023/02/21 06:16:56;;;;;;;8.13;3.08;;;;;;;;;;2094378;28;20024;-70
2023/02/21 06:18:16;;;;;;;4.50;2.88;;;;;;;;;;2091477;28;20032;-68
2023/02/21 06:19:35;;;;;;;6.18;3.10;;;;;;;;;;2094978;28;20179;-68
2023/02/21 06:20:54;;;;;;;3.60;3.20;;;;;;;;;;2093390;28;20035;-68
2023/02/21 06:22:14;;;;;;;3.80;3.42;;;;;;;;;;2093436;28;20049;-67
2023/02/21 06:23:33;;;;;;;5.03;2.65;;;;;;;;;;2086472;28;20033;-68
2023/02/21 06:24:52;;;;;;;4.05;2.90;;;;;;;;;;2089337;28;20025;-69
2023/02/21 06:26:11;;;;;;;23.48;13.85;;;;;;;;;;2086476;28;20112;-68
2023/02/21 06:27:30;;;;;;;3.35;3.05;;;;;;;;;;2090080;28;20121;-68
2023/02/21 06:28:49;;;;;;;10.73;7.38;;;;;;;;;;2093648;28;20032;-69
2023/02/21 06:30:08;;;;;;;3.35;3.03;;;;;;;;;;2084787;28;20037;-68
2023/02/21 06:31:27;;;;;;;4.88;3.65;;;;;;;;;;2089770;28;20033;-68
2023/02/21 06:32:46;;;;;;;6.65;4.63;;;;;;;;;;2092446;28;20037;-68
2023/02/21 06:34:06;;;;;;;6.95;4.93;;;;;;;;;;2093947;28;20589;-68
2023/02/21 06:35:24;;;;;;;5.60;2.58;;;;;;;;;;2092727;28;20469;-68
2023/02/21 06:36:43;;;;;;;2.92;2.47;;;;;;;;;;2095401;28;20032;-68
2023/02/21 06:38:02;;;;;;;3.05;2.80;;;;;;;;;;2094216;28;20021;-68
2023/02/21 06:39:22;;;;;;;2.78;2.58;;;;;;;;;;2092491;28;20062;-68
2023/02/21 06:40:42;;;;;;;3.03;2.72;;;;;;;;;;2093783;28;20029;-68
2023/02/21 06:42:00;;;;;;;2.92;2.70;;;;;;;;;;2093818;28;20020;-68
2023/02/21 06:43:19;;;;;;;4.10;3.00;;;;;;;;;;2093776;28;20104;-67
2023/02/21 06:44:38;;;;;;;2.60;2.40;;;;;;;;;;2092789;28;20037;-67
2023/02/21 06:45:57;;;;;;;3.88;2.90;;;;;;;;;;2086332;28;20032;-68
2023/02/21 06:47:16;;;;;;;3.47;3.13;;;;;;;;;;2092731;28;20032;-67
2023/02/21 06:48:35;;;;;;;4.10;3.08;;;;;;;;;;2085689;28;20096;-67
2023/02/21 06:49:54;;;;;;;3.60;2.90;;;;;;;;;;2091213;28;20028;-67
2023/02/21 06:51:13;;;;;;;3.85;3.45;;;;;;;;;;2093787;28;20044;-67
2023/02/21 06:52:33;;;;;;;3.15;2.85;;;;;;;;;;2096008;28;20036;-67
2023/02/21 06:53:53;;;;;;;3.72;3.10;;;;;;;;;;2094402;28;20048;-67
2023/02/21 06:55:12;;;;;;;5.03;3.30;;;;;;;;;;2083017;28;20033;-67
2023/02/21 06:56:31;;;;;;;3.75;3.03;;;;;;;;;;2090381;28;20028;-68
2023/02/21 06:57:50;;;;;;;3.30;3.00;;;;;;;;;;2093372;28;20476;-67
2023/02/21 06:59:09;;;;;;;5.50;3.40;;;;;;;;;;2093331;28;20441;-67
2023/02/21 07:00:28;;;;;;;6.65;4.15;;;;;;;;;;2094917;28;20396;-67
2023/02/21 07:01:47;;;;;;;6.43;3.70;;;;;;;;;;2095787;28;20032;-67
2023/02/21 07:03:06;;;;;;;3.78;3.20;;;;;;;;;;2094240;28;20020;-67
2023/02/21 07:04:25;;;;;;;6.75;3.25;;;;;;;;;;2095889;28;20025;-68
2023/02/21 07:05:44;;;;;;;5.15;3.55;;;;;;;;;;2096572;28;20021;-68
2023/02/21 07:07:03;;;;;;;3.65;3.33;;;;;;;;;;2096090;28;20112;-67
2023/02/21 07:08:24;;;;;;;3.95;3.33;;;;;;;;;;2084575;28;20569;-67
2023/02/21 07:09:43;;;;;;;3.65;3.22;;;;;;;;;;2092523;28;20420;-67
2023/02/21 07:11:04;;;;;;;6.40;3.58;;;;;;;;;;2093096;28;20381;-67
2023/02/21 07:12:23;;;;;;;4.40;3.00;;;;;;;;;;2095186;28;20028;-67
2023/02/21 07:13:46;;;;;;;3.80;3.40;;;;;;;;;;2094596;28;20484;-67
2023/02/21 07:15:05;;;;;;;4.00;3.70;;;;;;;;;;2093896;28;20033;-68
2023/02/21 07:16:25;;;;;;;5.10;3.90;;;;;;;;;;2094235;28;20032;-67
2023/02/21 07:17:44;;;;;;;4.60;4.20;;;;;;;;;;2094249;28;20065;-67
2023/02/21 07:19:03;;;;;;;3.67;3.38;;;;;;;;;;2085651;28;20447;-67
2023/02/21 07:20:21;;;;;;;6.40;4.40;;;;;;;;;;2090546;28;20107;-68
2023/02/21 07:21:41;;;;;;;5.85;4.15;;;;;;;;;;2096000;28;20060;-67
2023/02/21 07:23:00;;;;;;;5.40;4.10;;;;;;;;;;2095256;28;20033;-67
2023/02/21 07:24:19;;;;;;;8.55;4.80;;;;;;;;;;2095914;28;20471;-67
2023/02/21 07:25:37;;;;;;;6.32;4.47;;;;;;;;;;2095419;28;20025;-68
2023/02/21 07:26:57;;;;;;;12.02;5.78;;;;;;;;;;2095013;28;20036;-66
2023/02/21 07:28:16;;;;;;;6.75;4.60;;;;;;;;;;2093629;28;20029;-67
2023/02/21 07:29:35;;;;;;;11.07;5.70;;;;;;;;;;2086475;28;20139;-67
2023/02/21 07:30:54;;;;;;;11.65;5.18;;;;;;;;;;2090408;28;20036;-67
2023/02/21 07:32:13;;;;;;;12.75;6.32;;;;;;;;;;2096278;28;20500;-67
2023/02/21 07:33:31;;;;;;;12.63;5.32;;;;;;;;;;2094181;28;20036;-67
2023/02/21 07:34:50;;;;;;;17.30;6.45;;;;;;;;;;2090907;28;20151;-67
2023/02/21 07:36:09;;;;;;;11.55;6.50;;;;;;;;;;2095118;28;20025;-68
2023/02/21 07:37:28;;;;;;;12.13;5.30;;;;;;;;;;2096348;28;20028;-68
2023/02/21 07:38:47;;;;;;;10.95;5.85;;;;;;;;;;2097021;28;20423;-68
2023/02/21 07:40:07;;;;;;;10.82;5.78;;;;;;;;;;2093946;28;20033;-68
2023/02/21 07:41:25;;;;;;;17.63;6.80;;;;;;;;;;2096556;28;20025;-68
2023/02/21 07:42:46;;;;;;;6.88;5.82;;;;;;;;;;2097649;28;20021;-67
2023/02/21 07:44:06;;;;;;;14.93;7.10;;;;;;;;;;2097761;28;20013;-67
2023/02/21 07:45:25;;;;;;;11.25;6.78;;;;;;;;;;2087532;28;20021;-68
2023/02/21 07:46:45;;;;;;;11.20;6.18;;;;;;;;;;2094263;28;20377;-68
2023/02/21 07:48:04;;;;;;;11.23;6.10;;;;;;;;;;2095855;28;20032;-68
2023/02/21 07:49:23;;;;;;;11.77;7.18;;;;;;;;;;2096762;28;20389;-68
2023/02/21 07:50:42;;;;;;;12.82;7.35;;;;;;;;;;2096201;28;20040;-68
2023/02/21 07:52:01;;;;;;;11.32;6.35;;;;;;;;;;2094849;28;20036;-68
2023/02/21 07:53:20;;;;;;;11.50;6.72;;;;;;;;;;2096867;28;20099;-68
2023/02/21 07:54:39;;;;;;;10.93;5.95;;;;;;;;;;2087413;28;20021;-68
2023/02/21 07:55:57;;;;;;;14.77;7.25;;;;;;;;;;2084285;28;20033;-68
2023/02/21 07:57:17;;;;;;;12.32;6.53;;;;;;;;;;2092617;28;20033;-68
2023/02/21 07:58:36;;;;;;;14.13;7.00;;;;;;;;;;2096052;28;20029;-68
2023/02/21 07:59:55;;;;;;;17.13;6.65;;;;;;;;;;2095485;28;20029;-67
2023/02/21 08:01:14;;;;;;;11.77;6.45;;;;;;;;;;2094410;28;20064;-68
2023/02/21 08:02:33;;;;;;;8.10;6.05;;;;;;;;;;2096938;28;20040;-68
2023/02/21 08:03:52;;;;;;;12.13;5.95;;;;;;;;;;2095043;28;20029;-68
2023/02/21 08:05:11;;;;;;;11.90;5.68;;;;;;;;;;2096625;28;20036;-68
2023/02/21 08:06:32;;;;;;;14.73;6.28;;;;;;;;;;2096921;28;20028;-68
2023/02/21 08:07:51;;;;;;;20.80;6.25;;;;;;;;;;2096085;28;20021;-68
2023/02/21 08:09:10;;;;;;;9.00;6.05;;;;;;;;;;2097186;28;20461;-68
2023/02/21 08:10:28;;;;;;;10.20;6.40;;;;;;;;;;2095456;28;20195;-68
2023/02/21 08:11:47;;;;;;;11.30;5.30;;;;;;;;;;2095136;28;20070;-70
2023/02/21 08:13:06;;;;;;;10.18;5.95;;;;;;;;;;2095339;28;20020;-68
2023/02/21 08:14:25;;;;;;;14.63;6.10;;;;;;;;;;2094862;28;20057;-68
2023/02/21 08:15:44;;;;;;;11.50;5.60;;;;;;;;;;2087184;28;20029;-68
2023/02/21 08:17:03;;;;;;;9.75;5.53;;;;;;;;;;2093177;28;20020;-69
2023/02/21 08:18:23;;;;;;;14.73;5.80;;;;;;;;;;2095184;28;20025;-68
2023/02/21 08:19:42;;;;;;;10.20;5.30;;;;;;;;;;2093260;28;20111;-68
2023/02/21 08:21:01;;;;;;;8.52;5.20;;;;;;;;;;2095984;28;20025;-68
2023/02/21 08:22:20;;;;;;;7.28;5.18;;;;;;;;;;2096946;28;20025;-68
2023/02/21 08:23:39;;;;;;;9.02;5.13;;;;;;;;;;2096454;28;20052;-68
2023/02/21 08:24:58;;;;;;;10.85;5.90;;;;;;;;;;2097225;28;20024;-67
2023/02/21 08:26:17;;;;;;;14.52;5.88;;;;;;;;;;2097168;28;20037;-68
2023/02/21 08:27:42;;;;;;;7.18;5.25;;;;;;;;;;2096538;28;20389;-68
2023/02/21 08:29:02;;;;;;;9.10;5.53;;;;;;;;;;2096466;28;20107;-68
2023/02/21 08:30:21;;;;;;;12.35;5.55;;;;;;;;;;2096088;28;20032;-67
2023/02/21 08:31:40;;;;;;;12.02;5.95;;;;;;;;;;2095004;28;20032;-67
2023/02/21 08:32:59;;;;;;;8.45;5.63;;;;;;;;;;2096444;28;20115;-67
2023/02/21 08:34:18;;;;;;;13.27;5.97;;;;;;;;;;2096272;28;20032;-67
2023/02/21 08:35:37;;;;;;;11.05;6.05;;;;;;;;;;2095349;28;20417;-68
2023/02/21 08:36:56;;;;;;;11.88;5.70;;;;;;;;;;2095876;28;20025;-67
2023/02/21 08:38:17;;;;;;;9.20;5.25;;;;;;;;;;2096991;28;20025;-67
2023/02/21 08:39:36;;;;;;;9.25;6.00;;;;;;;;;;2096345;28;20025;-67
2023/02/21 08:40:56;;;;;;;9.50;5.57;;;;;;;;;;2095463;28;20063;-68
2023/02/21 08:42:15;;;;;;;9.95;5.63;;;;;;;;;;2097738;28;20633;-66
2023/02/21 08:43:34;;;;;;;9.90;4.88;;;;;;;;;;2085143;28;20033;-67
2023/02/21 08:44:53;;;;;;;10.63;6.28;;;;;;;;;;2092442;28;20029;-67
2023/02/21 08:46:13;;;;;;;7.13;5.40;;;;;;;;;;2095837;28;20037;-67
2023/02/21 08:47:36;;;;;;;15.13;7.28;;;;;;;;;;2095926;28;20040;-68
2023/02/21 08:48:55;;;;;;;15.18;6.90;;;;;;;;;;2096390;28;20123;-68
2023/02/21 08:50:14;;;;;;;10.68;5.90;;;;;;;;;;2095385;28;20484;-68
2023/02/21 08:51:33;;;;;;;9.38;5.35;;;;;;;;;;2095879;28;20033;-68
2023/02/21 08:52:53;;;;;;;11.68;6.13;;;;;;;;;;2095663;28;20036;-68
2023/02/21 08:54:12;;;;;;;10.50;5.63;;;;;;;;;;2096798;28;20080;-68
2023/02/21 08:55:31;;;;;;;7.07;5.35;;;;;;;;;;2095432;28;20052;-69
2023/02/21 08:56:50;;;;;;;10.75;5.78;;;;;;;;;;2095475;28;20505;-68
2023/02/21 08:58:10;;;;;;;12.50;6.13;;;;;;;;;;2095618;28;20046;-68
2023/02/21 08:59:32;;;;;;;10.57;6.38;;;;;;;;;;2095927;28;20033;-67
2023/02/21 09:00:51;;;;;;;19.02;9.98;;;;;;;;;;2096200;28;20045;-68
2023/02/21 09:02:14;;;;;;;22.65;12.07;;;;;;;;;;2095082;28;20048;-68
2023/02/21 09:03:33;;;;;;;14.57;6.22;;;;;;;;;;2095765;28;20486;-68
2023/02/21 09:04:52;;;;;;;11.52;6.00;;;;;;;;;;2095994;28;20037;-68
2023/02/21 09:06:11;;;;;;;10.07;5.25;;;;;;;;;;2088371;28;20017;-68
2023/02/21 09:07:32;;;;;;;12.50;4.97;;;;;;;;;;2091166;28;20033;-68
2023/02/21 09:08:51;;;;;;;7.35;4.82;;;;;;;;;;2095607;28;20051;-68
2023/02/21 09:10:10;;;;;;;5.90;4.50;;;;;;;;;;2097138;28;20060;-68
2023/02/21 09:11:29;;;;;;;5.90;3.92;;;;;;;;;;2096574;28;20028;-68
2023/02/21 09:12:48;;;;;;;7.78;4.63;;;;;;;;;;2096078;28;20033;-67
2023/02/21 09:14:07;;;;;;;9.77;4.43;;;;;;;;;;2086303;28;20032;-67
2023/02/21 09:15:26;;;;;;;6.85;3.38;;;;;;;;;;2091655;28;20024;-68
2023/02/21 09:16:45;;;;;;;6.65;4.28;;;;;;;;;;2096254;28;20119;-68
2023/02/21 09:18:05;;;;;;;8.57;4.22;;;;;;;;;;2096345;28;20012;-68
2023/02/21 09:19:24;;;;;;;15.98;4.60;;;;;;;;;;2095833;28;20021;-68
2023/02/21 09:20:44;;;;;;;6.05;4.25;;;;;;;;;;2095088;28;20028;-69
2023/02/21 09:22:05;;;;;;;8.00;5.07;;;;;;;;;;2095890;28;20032;-68
2023/02/21 09:23:25;;;;;;;6.70;4.65;;;;;;;;;;2095433;28;20036;-68
2023/02/21 09:24:44;;;;;;;10.93;4.70;;;;;;;;;;2095847;28;20148;-68
2023/02/21 09:26:03;;;;;;;12.85;4.78;;;;;;;;;;2095674;28;20028;-68
2023/02/21 09:27:35;;;;;;;7.40;4.32;;;;;;;;;;2095884;28;20048;-68
2023/02/21 09:28:54;;;;;;;5.32;4.38;;;;;;;;;;2095997;28;20485;-69
2023/02/21 09:30:15;;;;;;;14.98;4.45;;;;;;;;;;2094604;28;20029;-67
2023/02/21 09:31:34;;;;;;;14.73;4.72;;;;;;;;;;2094893;28;20024;-68
2023/02/21 09:32:53;;;;;;;11.45;4.55;;;;;;;;;;2094701;28;20455;-68
2023/02/21 09:34:12;;;;;;;12.48;5.85;;;;;;;;;;2096692;28;20040;-68
2023/02/21 09:35:31;;;;;;;5.93;4.47;;;;;;;;;;2096172;28;20467;-68
2023/02/21 09:36:50;;;;;;;6.53;4.10;;;;;;;;;;2096281;28;20040;-68
2023/02/21 09:38:09;;;;;;;7.57;4.45;;;;;;;;;;2095352;28;20021;-68
2023/02/21 09:39:28;;;;;;;6.13;4.90;;;;;;;;;;2095400;28;20025;-67
2023/02/21 09:40:48;;;;;;;5.47;4.13;;;;;;;;;;2094660;28;20060;-68
2023/02/21 09:42:08;;;;;;;7.05;4.60;;;;;;;;;;2096037;28;20036;-68
2023/02/21 09:43:30;;;;;;;6.13;4.80;;;;;;;;;;2096945;28;20025;-68
2023/02/21 09:44:50;;;;;;;6.00;4.30;;;;;;;;;;2094582;28;20384;-68
2023/02/21 09:46:14;;;;;;;9.88;4.70;;;;;;;;;;2094602;28;20036;-68
2023/02/21 09:47:36;;;;;;;8.77;4.28;;;;;;;;;;2094439;28;20478;-68
2023/02/21 09:48:55;;;;;;;5.65;4.05;;;;;;;;;;2095515;28;20473;-67
2023/02/21 09:50:17;;;;;;;11.63;5.43;;;;;;;;;;2095039;28;20029;-67
2023/02/21 09:51:40;;;;;;;4.03;3.63;;;;;;;;;;2096203;28;20056;-67
2023/02/21 09:52:59;;;;;;;;;;;;;;;;;;2095540;28;20036;-69
2023/02/21 09:54:22;;;;;;;7.80;4.40;;;;;;;;;;2094171;28;19908;-67
2023/02/21 09:55:42;;;;;;;5.70;4.43;;;;;;;;;;2095185;28;20420;-67
2023/02/21 09:57:02;;;;;;;7.72;4.75;;;;;;;;;;2096148;28;20916;-67
2023/02/21 09:58:21;;;;;;;7.38;4.50;;;;;;;;;;2095698;28;20021;-67
2023/02/21 09:59:40;;;;;;;5.45;4.15;;;;;;;;;;2096975;28;20463;-66
2023/02/21 10:01:02;;;;;;;4.65;4.10;;;;;;;;;;2095143;28;20099;-67
2023/02/21 10:02:33;;;;;;;4.88;4.43;;;;;;;;;;2095864;28;20099;-66
2023/02/21 10:04:16;;;;;;;6.60;4.40;;;;;;;;;;2096519;28;20511;-67
2023/02/21 10:05:41;;;;;;;4.22;3.38;;;;;;;;;;2073809;28;20037;-66
2023/02/21 10:07:00;;;;;;;7.82;4.22;;;;;;;;;;2095838;28;20032;-66
2023/02/21 10:08:35;;;;;;;7.47;4.40;;;;;;;;;;2094948;28;20048;-66
2023/02/21 10:09:58;;;;;;;5.15;3.88;;;;;;;;;;2094439;28;20442;-67
2023/02/21 10:11:33;;;;;;;4.88;4.30;;;;;;;;;;2093959;28;20064;-66
2023/02/21 10:13:11;;;;;;;3.70;3.35;;;;;;;;;;2094159;28;20040;-67
2023/02/21 10:14:30;;;;;;;4.72;3.50;;;;;;;;;;2094493;28;20028;-66
2023/02/21 10:15:55;;;;;;;6.20;4.07;;;;;;;;;;2086100;28;20465;-67
2023/02/21 10:17:23;;;;;;;6.10;3.85;;;;;;;;;;2094297;28;20037;-66